createdAt,value
2023-01-19T00:01:14.059Z,3.90
2023-01-19T00:03:42.615Z,4.50
2023-01-19T00:06:13.426Z,4.50
2023-01-19T00:08:41.704Z,4.20
2023-01-19T00:11:09.923Z,4.60
2023-01-19T00:13:39.316Z,4.60
2023-01-19T00:16:07.961Z,4.70
2023-01-19T00:18:36.116Z,4.80
2023-01-19T00:21:04.503Z,5.60
2023-01-19T00:23:34.277Z,3.90
2023-01-19T00:26:02.412Z,4.20
2023-01-19T00:28:30.609Z,4.10
2023-01-19T00:30:58.854Z,4.00
2023-01-19T00:33:26.983Z,3.20
2023-01-19T00:35:55.196Z,4.60
2023-01-19T00:38:23.676Z,3.90
2023-01-19T00:40:51.860Z,4.60
2023-01-19T00:43:22.231Z,4.90
2023-01-19T00:45:50.543Z,4.80
2023-01-19T00:48:18.742Z,4.00
2023-01-19T00:50:49.277Z,4.20
2023-01-19T00:53:17.501Z,4.50
2023-01-19T00:55:45.667Z,4.70
2023-01-19T00:58:14.915Z,4.30
2023-01-19T01:00:43.384Z,4.40
2023-01-19T01:03:11.796Z,3.70
2023-01-19T01:05:43.089Z,4.50
2023-01-19T01:08:11.304Z,4.60
2023-01-19T01:10:39.469Z,4.60
2023-01-19T01:13:21.378Z,4.10
2023-01-19T01:15:52.209Z,4.90
2023-01-19T01:18:20.961Z,4.10
2023-01-19T01:20:49.229Z,3.80
2023-01-19T01:23:23.358Z,4.00
2023-01-19T01:25:51.632Z,4.00
2023-01-19T01:28:19.869Z,3.70
2023-01-19T01:30:48.267Z,4.00
2023-01-19T01:33:40.562Z,3.90
2023-01-19T01:36:05.290Z,4.10
2023-01-19T01:38:33.578Z,3.80
2023-01-19T01:41:01.782Z,3.50
2023-01-19T01:43:58.654Z,4.00
2023-01-19T01:46:29.354Z,4.30
2023-01-19T01:49:00.630Z,3.60
2023-01-19T01:51:38.079Z,4.40
2023-01-19T01:54:13.765Z,4.40
2023-01-19T01:56:45.356Z,4.20
2023-01-19T01:59:39.447Z,3.40
2023-01-19T02:02:35.196Z,3.60
2023-01-19T02:05:09.545Z,3.40
2023-01-19T02:08:13.642Z,3.90
2023-01-19T02:11:03.285Z,3.80
2023-01-19T02:13:33.745Z,4.70
2023-01-19T02:16:06.531Z,4.50
2023-01-19T02:18:35.310Z,4.30
2023-01-19T02:21:12.397Z,4.60
2023-01-19T02:23:48.730Z,3.50
2023-01-19T02:26:21.457Z,4.40
2023-01-19T02:29:03.237Z,3.60
2023-01-19T02:34:05.487Z,4.00
2023-01-19T02:36:41.376Z,4.20
2023-01-19T02:39:11.097Z,3.70
2023-01-19T02:41:44.927Z,3.70
2023-01-19T02:44:14.650Z,4.00
2023-01-19T02:46:45.523Z,3.10
2023-01-19T02:49:13.897Z,3.20
2023-01-19T02:51:44.647Z,4.00
2023-01-19T02:54:36.785Z,3.30
2023-01-19T02:57:19.395Z,3.90
2023-01-19T03:00:10.876Z,3.40
2023-01-19T03:02:56.139Z,3.20
2023-01-19T03:05:30.560Z,3.60
2023-01-19T03:08:17.827Z,3.50
2023-01-19T03:11:08.553Z,3.20
2023-01-19T03:14:00.967Z,3.30
2023-01-19T03:16:38.942Z,3.40
2023-01-19T03:19:17.999Z,3.10
2023-01-19T03:21:49.718Z,3.30
2023-01-19T03:24:22.364Z,3.30
2023-01-19T03:27:02.593Z,3.00
2023-01-19T03:29:37.656Z,3.70
2023-01-19T03:32:11.498Z,4.10
2023-01-19T03:34:42.635Z,4.80
2023-01-19T03:37:11.817Z,3.50
2023-01-19T03:39:42.962Z,4.60
2023-01-19T03:42:15.571Z,5.00
2023-01-19T03:44:46.567Z,3.80
2023-01-19T03:47:15.399Z,4.60
2023-01-19T03:49:46.737Z,4.50
2023-01-19T03:52:14.951Z,4.50
2023-01-19T03:54:52.927Z,5.40
2023-01-19T03:57:46.550Z,4.50
2023-01-19T04:00:38.522Z,3.20
2023-01-19T04:03:14.438Z,5.00
2023-01-19T04:05:44.774Z,4.70
2023-01-19T04:08:13.402Z,3.60
2023-01-19T04:10:43.801Z,4.20
2023-01-19T04:13:12.076Z,4.50
2023-01-19T04:15:40.343Z,4.40
2023-01-19T04:18:10.542Z,3.30
2023-01-19T04:20:39.033Z,2.90
2023-01-19T04:23:09.686Z,2.80
2023-01-19T04:25:38.966Z,3.20
2023-01-19T04:28:07.354Z,3.00
2023-01-19T04:30:35.626Z,3.20
2023-01-19T04:33:04.259Z,3.10
2023-01-19T04:35:34.565Z,3.20
2023-01-19T04:38:02.788Z,3.70
2023-01-19T04:40:31.073Z,3.20
2023-01-19T04:42:59.593Z,3.40
2023-01-19T04:45:28.014Z,4.10
2023-01-19T04:47:56.463Z,3.30
2023-01-19T04:50:25.164Z,4.10
2023-01-19T04:52:53.512Z,3.40
2023-01-19T04:55:21.718Z,3.10
2023-01-19T04:57:50.196Z,4.10
2023-01-19T05:00:19.040Z,4.90
2023-01-19T05:02:47.976Z,3.60
2023-01-19T05:05:16.886Z,3.00
2023-01-19T05:07:45.332Z,3.00
2023-01-19T05:10:13.948Z,3.50
2023-01-19T05:12:42.493Z,3.50
2023-01-19T05:15:13.767Z,3.90
2023-01-19T05:17:43.174Z,3.10
2023-01-19T05:20:16.585Z,3.80
2023-01-19T05:22:56.008Z,5.90
2023-01-19T05:25:25.435Z,3.80
2023-01-19T05:27:53.697Z,3.40
2023-01-19T05:30:24.693Z,3.60
2023-01-19T05:32:52.991Z,4.20
2023-01-19T05:35:31.352Z,4.70
2023-01-19T05:38:04.733Z,4.10
2023-01-19T05:40:33.714Z,3.30
2023-01-19T05:43:05.435Z,3.20
2023-01-19T05:45:34.585Z,3.20
2023-01-19T05:48:02.907Z,3.40
2023-01-19T05:50:31.742Z,3.50
2023-01-19T05:53:01.045Z,3.60
2023-01-19T05:55:30.073Z,3.40
2023-01-19T05:57:59.955Z,3.50
2023-01-19T06:00:28.261Z,3.70
2023-01-19T06:02:56.564Z,4.00
2023-01-19T06:05:24.870Z,2.60
2023-01-19T06:07:53.156Z,3.50
2023-01-19T06:10:24.251Z,3.00
2023-01-19T06:12:53.980Z,4.70
2023-01-19T06:15:23.062Z,3.60
2023-01-19T06:17:51.244Z,3.20
2023-01-19T06:20:19.532Z,3.70
2023-01-19T06:22:48.321Z,3.90
2023-01-19T06:25:16.787Z,4.50
2023-01-19T06:27:46.316Z,3.50
2023-01-19T06:30:17.760Z,4.30
2023-01-19T06:32:46.094Z,3.20
2023-01-19T06:35:14.637Z,2.90
2023-01-19T06:37:42.918Z,4.10
2023-01-19T06:40:13.729Z,8.60
2023-01-19T06:42:42.989Z,8.10
2023-01-19T06:45:12.333Z,4.60
2023-01-19T06:47:42.928Z,5.20
2023-01-19T06:50:11.634Z,3.70
2023-01-19T06:52:42.812Z,4.50
2023-01-19T06:55:12.242Z,5.70
2023-01-19T06:57:40.799Z,5.20
2023-01-19T07:00:13.313Z,4.00
2023-01-19T07:02:43.724Z,5.40
2023-01-19T07:05:14.578Z,4.10
2023-01-19T07:07:44.999Z,3.90
2023-01-19T07:10:16.579Z,4.80
2023-01-19T07:12:48.116Z,4.30
2023-01-19T07:15:20.007Z,5.80
2023-01-19T07:17:49.383Z,6.60
2023-01-19T07:20:20.180Z,4.40
2023-01-19T07:22:56.473Z,4.20
2023-01-19T07:25:24.749Z,4.00
2023-01-19T07:27:56.897Z,5.30
2023-01-19T07:30:25.535Z,3.90
2023-01-19T07:32:58.447Z,5.30
2023-01-19T07:35:27.337Z,4.40
2023-01-19T07:37:55.592Z,4.60
2023-01-19T07:40:24.142Z,4.40
2023-01-19T07:42:52.483Z,5.00
2023-01-19T07:45:21.366Z,4.50
2023-01-19T07:47:49.932Z,3.40
2023-01-19T07:50:21.697Z,3.60
2023-01-19T07:52:53.290Z,3.80
2023-01-19T07:55:22.410Z,4.90
2023-01-19T07:57:51.917Z,5.10
2023-01-19T08:00:24.785Z,5.70
2023-01-19T08:02:54.139Z,4.70
2023-01-19T08:05:22.451Z,4.70
2023-01-19T08:07:52.679Z,4.30
2023-01-19T08:10:26.049Z,4.30
2023-01-19T08:12:57.826Z,4.70
2023-01-19T08:15:26.325Z,3.70
2023-01-19T08:17:59.681Z,3.80
2023-01-19T08:20:29.341Z,4.20
2023-01-19T08:23:03.375Z,3.40
2023-01-19T08:25:36.260Z,4.10
2023-01-19T08:28:07.063Z,3.40
2023-01-19T08:30:36.036Z,3.60
2023-01-19T08:33:04.663Z,3.80
2023-01-19T08:35:37.665Z,3.80
2023-01-19T08:38:09.799Z,3.60
2023-01-19T08:40:41.363Z,3.50
2023-01-19T08:43:15.172Z,3.40
2023-01-19T08:45:50.206Z,4.00
2023-01-19T08:48:22.427Z,3.30
2023-01-19T08:50:52.370Z,4.00
2023-01-19T08:53:23.819Z,4.90
2023-01-19T08:56:03.680Z,3.50
2023-01-19T08:58:32.004Z,2.80
2023-01-19T09:01:01.491Z,3.80
2023-01-19T09:03:31.354Z,4.10
2023-01-19T09:06:05.173Z,3.70
2023-01-19T09:08:35.092Z,3.30
2023-01-19T09:11:03.390Z,3.10
2023-01-19T09:13:32.443Z,3.30
2023-01-19T09:16:03.868Z,3.00
2023-01-19T09:18:32.263Z,3.10
2023-01-19T09:21:01.658Z,2.70
2023-01-19T09:23:31.595Z,3.50
2023-01-19T09:26:02.507Z,3.50
2023-01-19T09:28:39.933Z,3.60
2023-01-19T09:31:09.858Z,3.20
2023-01-19T09:33:38.160Z,2.30
2023-01-19T09:36:06.834Z,3.10
2023-01-19T09:38:37.365Z,5.90
2023-01-19T09:41:21.376Z,2.70
2023-01-19T09:43:57.484Z,3.30
2023-01-19T09:46:29.493Z,2.80
2023-01-19T09:49:09.087Z,2.80
2023-01-19T09:51:41.352Z,3.70
2023-01-19T09:54:17.620Z,5.60
2023-01-19T09:56:49.274Z,4.90
2023-01-19T09:59:29.101Z,3.80
2023-01-19T10:02:14.737Z,2.90
2023-01-19T10:04:52.550Z,4.60
2023-01-19T10:07:33.340Z,4.00
2023-01-19T10:10:04.715Z,2.80
2023-01-19T10:13:02.165Z,2.70
2023-01-19T10:15:53.317Z,6.50
2023-01-19T10:18:33.435Z,3.10
2023-01-19T10:21:13.252Z,4.90
2023-01-19T10:23:56.440Z,5.10
2023-01-19T10:26:27.394Z,7.70
2023-01-19T10:29:05.707Z,4.80
2023-01-19T10:31:40.493Z,3.60
2023-01-19T10:34:23.373Z,3.50
2023-01-19T10:37:01.797Z,3.50
2023-01-19T10:39:30.548Z,4.00
2023-01-19T10:42:04.257Z,2.50
2023-01-19T10:44:37.354Z,3.70
2023-01-19T10:47:14.015Z,2.90
2023-01-19T10:49:44.864Z,2.80
2023-01-19T10:52:33.805Z,3.00
2023-01-19T10:55:07.936Z,2.80
2023-01-19T10:57:40.983Z,3.50
2023-01-19T11:00:38.313Z,2.80
2023-01-19T11:03:31.117Z,3.10
2023-01-19T11:06:14.949Z,2.90
2023-01-19T11:08:45.037Z,3.60
2023-01-19T11:11:15.550Z,2.90
2023-01-19T11:13:44.440Z,2.60
2023-01-19T11:16:30.862Z,3.60
2023-01-19T11:19:02.255Z,2.40
2023-01-19T11:21:33.241Z,4.20
2023-01-19T11:24:05.582Z,3.20
2023-01-19T11:26:41.110Z,2.90
2023-01-19T11:29:23.935Z,2.30
2023-01-19T11:31:54.257Z,2.40
2023-01-19T11:34:27.498Z,2.90
2023-01-19T11:37:25.414Z,2.40
2023-01-19T11:39:59.308Z,2.30
2023-01-19T11:42:31.341Z,3.10
2023-01-19T11:45:25.579Z,3.00
2023-01-19T11:47:57.503Z,1.90
2023-01-19T11:50:31.951Z,2.70
2023-01-19T11:53:24.483Z,3.00
2023-01-19T11:56:11.269Z,2.50
2023-01-19T11:58:43.360Z,2.80
2023-01-19T12:01:48.096Z,3.90
2023-01-19T12:04:27.787Z,2.20
2023-01-19T12:06:59.991Z,3.00
2023-01-19T12:09:35.342Z,3.70
2023-01-19T12:12:05.380Z,2.70
2023-01-19T12:14:41.448Z,2.80
2023-01-19T12:17:18.908Z,2.90
2023-01-19T12:19:55.215Z,2.40
2023-01-19T12:22:24.382Z,3.30
2023-01-19T12:25:14.260Z,3.30
2023-01-19T12:27:46.907Z,2.90
2023-01-19T12:30:44.866Z,2.40
2023-01-19T12:33:48.959Z,2.80
2023-01-19T12:36:17.388Z,3.90
2023-01-19T12:39:10.333Z,2.90
2023-01-19T12:41:40.449Z,3.10
2023-01-19T12:44:11.862Z,2.60
2023-01-19T12:47:03.586Z,2.90
2023-01-19T12:49:37.889Z,4.30
2023-01-19T12:52:14.654Z,4.00
2023-01-19T12:55:15.224Z,2.70
2023-01-19T12:58:20.711Z,3.50
2023-01-19T13:01:13.768Z,3.30
2023-01-19T13:03:44.157Z,4.50
2023-01-19T13:06:12.937Z,3.40
2023-01-19T13:09:00.006Z,2.80
2023-01-19T13:11:34.367Z,3.20
2023-01-19T13:14:04.694Z,2.80
2023-01-19T13:17:17.499Z,2.80
2023-01-19T13:20:46.937Z,2.90
2023-01-19T13:23:28.012Z,4.00
2023-01-19T13:26:08.873Z,4.10
2023-01-19T13:28:43.558Z,4.00
2023-01-19T13:31:13.676Z,4.20
2023-01-19T13:33:57.442Z,3.20
2023-01-19T13:36:37.984Z,3.40
2023-01-19T13:39:17.065Z,5.70
2023-01-19T13:41:48.012Z,5.90
2023-01-19T13:44:27.999Z,4.40
2023-01-19T13:46:59.931Z,10.20
2023-01-19T13:49:36.598Z,3.90
2023-01-19T13:52:28.803Z,5.00
2023-01-19T13:55:02.502Z,10.80
2023-01-19T13:57:54.779Z,3.10
2023-01-19T14:00:34.203Z,5.40
2023-01-19T14:03:19.446Z,3.00
2023-01-19T14:05:51.952Z,5.00
2023-01-19T14:08:21.322Z,3.80
2023-01-19T14:10:56.514Z,6.60
2023-01-19T14:13:37.417Z,4.90
2023-01-19T14:16:15.009Z,4.20
2023-01-19T14:18:43.299Z,3.60
2023-01-19T14:21:16.064Z,5.10
2023-01-19T14:23:50.404Z,4.40
2023-01-19T14:26:37.802Z,4.40
2023-01-19T14:29:22.055Z,5.10
2023-01-19T14:32:03.930Z,5.20
2023-01-19T14:34:46.372Z,3.90
2023-01-19T14:37:28.342Z,4.30
2023-01-19T14:40:04.983Z,5.30
2023-01-19T14:42:37.674Z,5.00
2023-01-19T14:45:21.833Z,5.30
2023-01-19T14:50:33.426Z,10.70
2023-01-19T14:53:07.811Z,6.70
2023-01-19T14:55:46.829Z,5.60
2023-01-19T14:58:17.183Z,6.80
2023-01-19T15:00:47.855Z,7.70
2023-01-19T15:03:16.351Z,5.10
2023-01-19T15:05:46.871Z,6.90
2023-01-19T15:08:24.592Z,5.10
2023-01-19T15:10:55.676Z,4.40
2023-01-19T15:13:27.049Z,5.90
2023-01-19T15:15:55.385Z,6.20
2023-01-19T15:18:27.075Z,6.90
2023-01-19T15:20:55.597Z,6.50
2023-01-19T15:23:23.871Z,9.00
2023-01-19T15:25:52.756Z,5.10
2023-01-19T15:28:21.021Z,6.40
2023-01-19T15:30:49.265Z,7.00
2023-01-19T15:33:23.765Z,6.30
2023-01-19T15:35:52.868Z,7.10
2023-01-19T15:38:22.584Z,10.30
2023-01-19T15:40:53.883Z,13.70
2023-01-19T15:43:22.095Z,9.70
2023-01-19T15:46:02.800Z,8.50
2023-01-19T15:49:14.793Z,10.80
2023-01-19T15:51:43.529Z,7.10
2023-01-19T15:54:17.291Z,20.90
2023-01-19T15:56:45.638Z,7.70
2023-01-19T15:59:13.874Z,8.60
2023-01-19T16:01:42.798Z,8.80
2023-01-19T16:04:12.063Z,13.00
2023-01-19T16:06:42.714Z,13.70
2023-01-19T16:09:14.222Z,14.30
2023-01-19T16:11:42.446Z,9.10
2023-01-19T16:14:10.752Z,8.70
2023-01-19T16:16:39.158Z,7.80
2023-01-19T16:19:07.564Z,7.10
2023-01-19T16:21:35.909Z,8.90
2023-01-19T16:24:04.295Z,8.10
2023-01-19T16:26:35.273Z,9.50
2023-01-19T16:29:11.078Z,11.40
2023-01-19T16:31:41.264Z,7.70
2023-01-19T16:34:10.422Z,11.40
2023-01-19T16:36:46.131Z,7.80
2023-01-19T16:39:17.114Z,7.50
2023-01-19T16:41:46.104Z,8.70
2023-01-19T16:44:16.437Z,8.20
2023-01-19T16:46:46.891Z,10.50
2023-01-19T16:49:21.462Z,8.50
2023-01-19T16:51:55.073Z,8.70
2023-01-19T16:54:28.510Z,7.70
2023-01-19T16:56:57.780Z,7.90
2023-01-19T16:59:29.307Z,8.10
2023-01-19T17:01:58.464Z,7.90
2023-01-19T17:04:27.512Z,9.00
2023-01-19T17:06:56.062Z,12.40
2023-01-19T17:09:24.237Z,15.10
2023-01-19T17:11:52.459Z,8.70
2023-01-19T17:14:21.198Z,6.40
2023-01-19T17:16:49.850Z,6.10
2023-01-19T17:19:22.341Z,8.00
2023-01-19T17:21:50.758Z,8.80
2023-01-19T17:24:24.102Z,10.80
2023-01-19T17:26:52.358Z,23.90
2023-01-19T17:29:22.624Z,22.60
2023-01-19T17:31:53.625Z,50.20
2023-01-19T17:34:21.833Z,45.80
2023-01-19T17:36:51.588Z,90.60
2023-01-19T17:39:19.810Z,18.10
2023-01-19T17:41:50.220Z,24.30
2023-01-19T17:44:18.693Z,20.80
2023-01-19T17:46:46.888Z,14.30
2023-01-19T17:49:15.312Z,9.00
2023-01-19T17:51:43.649Z,12.40
2023-01-19T17:54:12.685Z,10.70
2023-01-19T17:56:41.512Z,7.20
2023-01-19T17:59:09.960Z,5.20
2023-01-19T18:01:40.769Z,5.30
2023-01-19T18:04:09.772Z,4.90
2023-01-19T18:06:39.032Z,6.50
2023-01-19T18:09:08.754Z,5.70
2023-01-19T18:11:37.853Z,6.10
2023-01-19T18:14:06.883Z,6.20
2023-01-19T18:16:36.103Z,10.40
2023-01-19T18:19:05.690Z,9.10
2023-01-19T18:21:36.123Z,7.60
2023-01-19T18:24:06.903Z,5.90
2023-01-19T18:26:35.691Z,6.30
2023-01-19T18:29:04.324Z,6.10
2023-01-19T18:31:32.672Z,11.10
2023-01-19T18:34:01.135Z,6.90
2023-01-19T18:36:32.274Z,6.10
2023-01-19T18:39:01.626Z,6.50
2023-01-19T18:41:30.512Z,13.70
2023-01-19T18:43:59.867Z,9.70
2023-01-19T18:46:28.219Z,10.70
2023-01-19T18:51:30.841Z,11.00
2023-01-19T18:54:01.475Z,10.60
2023-01-19T18:56:29.788Z,23.40
2023-01-19T18:58:58.050Z,12.30
2023-01-19T19:01:33.487Z,14.60
2023-01-19T19:04:01.965Z,10.10
2023-01-19T19:06:30.228Z,7.90
2023-01-19T19:08:59.668Z,10.10
2023-01-19T19:11:30.666Z,9.30
2023-01-19T19:14:01.652Z,8.90
2023-01-19T19:16:31.654Z,6.30
2023-01-19T19:19:02.001Z,7.70
2023-01-19T19:21:31.577Z,7.40
2023-01-19T19:24:01.284Z,8.10
2023-01-19T19:26:31.669Z,9.60
2023-01-19T19:29:03.769Z,7.10
2023-01-19T19:31:34.799Z,7.40
2023-01-19T19:34:05.480Z,7.50
2023-01-19T19:36:33.760Z,5.80
2023-01-19T19:39:02.529Z,6.50
2023-01-19T19:41:32.615Z,8.20
2023-01-19T19:44:00.856Z,5.80
2023-01-19T19:46:29.202Z,5.50
2023-01-19T19:48:57.524Z,5.10
2023-01-19T19:51:27.848Z,6.20
2023-01-19T19:53:59.201Z,5.80
2023-01-19T19:56:31.550Z,5.40
2023-01-19T19:58:59.932Z,7.20
2023-01-19T20:01:32.795Z,8.20
2023-01-19T20:04:09.000Z,9.10
2023-01-19T20:06:40.546Z,7.70
2023-01-19T20:09:10.920Z,7.80
2023-01-19T20:11:39.242Z,8.00
2023-01-19T20:14:11.473Z,8.50
2023-01-19T20:16:41.209Z,7.70
2023-01-19T20:19:09.532Z,7.70
2023-01-19T20:21:42.062Z,6.10
2023-01-19T20:24:20.080Z,8.00
2023-01-19T20:26:51.444Z,6.00
2023-01-19T20:29:20.516Z,5.50
2023-01-19T20:31:55.697Z,5.10
2023-01-19T20:36:55.075Z,5.80
2023-01-19T20:39:26.157Z,5.80
2023-01-19T20:41:54.394Z,5.00
2023-01-19T20:44:24.865Z,4.90
2023-01-19T20:46:55.262Z,4.80
2023-01-19T20:49:23.956Z,4.10
2023-01-19T20:51:52.377Z,5.10
2023-01-19T20:54:24.761Z,4.00
2023-01-19T20:56:52.935Z,5.60
2023-01-19T20:59:21.297Z,4.20
2023-01-19T21:01:51.037Z,2.70
2023-01-19T21:04:21.367Z,3.30
2023-01-19T21:06:49.702Z,3.10
2023-01-19T21:09:19.447Z,3.00
2023-01-19T21:11:47.760Z,2.40
2023-01-19T21:14:15.892Z,3.10
2023-01-19T21:16:45.687Z,2.10
2023-01-19T21:19:13.960Z,2.30
2023-01-19T21:21:42.308Z,4.90
2023-01-19T21:24:11.242Z,2.60
2023-01-19T21:26:39.635Z,2.50
2023-01-19T21:29:13.566Z,3.00
2023-01-19T21:31:41.962Z,3.20
2023-01-19T21:34:10.311Z,3.50
2023-01-19T21:36:38.616Z,4.00
2023-01-19T21:39:08.299Z,6.60
2023-01-19T21:41:40.157Z,6.20
2023-01-19T21:44:08.646Z,5.50
2023-01-19T21:46:39.788Z,4.90
2023-01-19T21:49:18.587Z,3.20
2023-01-19T21:51:48.102Z,2.90
2023-01-19T21:54:17.494Z,3.00
2023-01-19T21:56:45.819Z,3.40
2023-01-19T21:59:15.924Z,2.30
2023-01-19T22:01:45.615Z,2.00
2023-01-19T22:04:16.130Z,2.50
2023-01-19T22:06:44.405Z,3.50
2023-01-19T22:09:12.792Z,2.60
2023-01-19T22:11:41.287Z,3.70
2023-01-19T22:14:10.932Z,3.30
2023-01-19T22:16:39.225Z,2.40
2023-01-19T22:19:13.166Z,4.10
2023-01-19T22:21:41.381Z,3.40
2023-01-19T22:24:09.670Z,3.50
2023-01-19T22:26:37.965Z,4.30
2023-01-19T22:29:11.387Z,3.20
2023-01-19T22:31:40.789Z,3.90
2023-01-19T22:34:11.025Z,3.40
2023-01-19T22:36:39.456Z,4.20
2023-01-19T22:39:10.659Z,6.00
2023-01-19T22:41:42.205Z,4.60
2023-01-19T22:44:15.308Z,4.40
2023-01-19T22:46:44.444Z,3.80
2023-01-19T22:49:14.740Z,5.00
2023-01-19T22:51:43.219Z,5.50
2023-01-19T22:54:11.979Z,4.90
2023-01-19T22:56:40.682Z,3.50
2023-01-19T22:59:09.471Z,3.30
2023-01-19T23:01:42.339Z,2.80
2023-01-19T23:04:15.926Z,3.60
2023-01-19T23:06:50.457Z,4.10
2023-01-19T23:09:20.678Z,3.60
2023-01-19T23:11:50.900Z,3.50
2023-01-19T23:14:21.863Z,3.70
2023-01-19T23:16:51.794Z,3.60
2023-01-19T23:19:20.236Z,3.40
2023-01-19T23:21:51.099Z,4.20
2023-01-19T23:24:19.377Z,3.30
2023-01-19T23:26:49.565Z,3.00
2023-01-19T23:29:18.269Z,3.20
2023-01-19T23:31:49.046Z,2.40
2023-01-19T23:34:17.596Z,2.90
2023-01-19T23:36:48.801Z,2.00
2023-01-19T23:39:21.880Z,2.50
2023-01-19T23:41:50.668Z,2.00
2023-01-19T23:44:20.744Z,2.50
2023-01-19T23:46:49.077Z,2.80
2023-01-19T23:49:18.408Z,2.50
2023-01-19T23:51:48.779Z,2.50
2023-01-19T23:54:20.116Z,3.00
2023-01-19T23:56:48.396Z,2.60
2023-01-19T23:59:16.829Z,2.90
